sensor_id;sensor_type;location;lat;lon;timestamp;temperature;humidity
68011;DHT22;54794;48.348;7.878;2022-08-02T00:00:36;21.90;63.10
68011;DHT22;54794;48.348;7.878;2022-08-02T00:03:03;21.90;63.10
68011;DHT22;54794;48.348;7.878;2022-08-02T00:05:30;21.90;63.20
68011;DHT22;54794;48.348;7.878;2022-08-02T00:07:57;21.80;63.10
68011;DHT22;54794;48.348;7.878;2022-08-02T00:10:24;21.80;63.20
68011;DHT22;54794;48.348;7.878;2022-08-02T00:12:52;21.80;63.20
68011;DHT22;54794;48.348;7.878;2022-08-02T00:15:20;21.80;63.40
68011;DHT22;54794;48.348;7.878;2022-08-02T00:17:47;21.80;63.40
68011;DHT22;54794;48.348;7.878;2022-08-02T00:20:15;21.70;63.50
68011;DHT22;54794;48.348;7.878;2022-08-02T00:22:42;21.70;63.50
68011;DHT22;54794;48.348;7.878;2022-08-02T00:25:09;21.70;63.40
68011;DHT22;54794;48.348;7.878;2022-08-02T00:27:36;21.70;63.50
68011;DHT22;54794;48.348;7.878;2022-08-02T00:30:03;21.70;63.60
68011;DHT22;54794;48.348;7.878;2022-08-02T00:32:31;21.70;63.60
68011;DHT22;54794;48.348;7.878;2022-08-02T00:34:58;21.60;63.60
68011;DHT22;54794;48.348;7.878;2022-08-02T00:37:25;21.60;63.50
68011;DHT22;54794;48.348;7.878;2022-08-02T00:39:52;21.60;63.40
68011;DHT22;54794;48.348;7.878;2022-08-02T00:42:19;21.60;63.40
68011;DHT22;54794;48.348;7.878;2022-08-02T00:44:46;21.60;63.50
68011;DHT22;54794;48.348;7.878;2022-08-02T00:47:12;21.60;63.60
68011;DHT22;54794;48.348;7.878;2022-08-02T00:49:45;21.50;63.60
68011;DHT22;54794;48.348;7.878;2022-08-02T00:52:12;21.60;63.70
68011;DHT22;54794;48.348;7.878;2022-08-02T00:54:40;21.60;63.70
68011;DHT22;54794;48.348;7.878;2022-08-02T00:57:08;21.60;63.40
68011;DHT22;54794;48.348;7.878;2022-08-02T00:59:35;21.50;63.60
68011;DHT22;54794;48.348;7.878;2022-08-02T01:02:02;21.50;63.70
68011;DHT22;54794;48.348;7.878;2022-08-02T01:04:29;21.50;63.80
68011;DHT22;54794;48.348;7.878;2022-08-02T01:06:59;21.50;63.90
68011;DHT22;54794;48.348;7.878;2022-08-02T01:09:37;21.50;64.00
68011;DHT22;54794;48.348;7.878;2022-08-02T01:12:05;21.50;64.10
68011;DHT22;54794;48.348;7.878;2022-08-02T01:14:32;21.40;64.00
68011;DHT22;54794;48.348;7.878;2022-08-02T01:17:09;21.50;64.00
68011;DHT22;54794;48.348;7.878;2022-08-02T01:34:50;21.20;64.90
68011;DHT22;54794;48.348;7.878;2022-08-02T01:37:28;21.10;65.10
68011;DHT22;54794;48.348;7.878;2022-08-02T01:40:09;21.10;64.50
68011;DHT22;54794;48.348;7.878;2022-08-02T01:42:47;21.10;64.80
68011;DHT22;54794;48.348;7.878;2022-08-02T01:45:18;21.00;65.30
68011;DHT22;54794;48.348;7.878;2022-08-02T01:47:48;21.00;64.50
68011;DHT22;54794;48.348;7.878;2022-08-02T01:50:22;21.00;64.60
68011;DHT22;54794;48.348;7.878;2022-08-02T01:52:56;21.00;65.00
68011;DHT22;54794;48.348;7.878;2022-08-02T01:55:25;20.90;65.00
68011;DHT22;54794;48.348;7.878;2022-08-02T01:58:19;20.90;64.90
68011;DHT22;54794;48.348;7.878;2022-08-02T02:00:50;21.00;64.90
68011;DHT22;54794;48.348;7.878;2022-08-02T02:03:23;20.90;64.90
68011;DHT22;54794;48.348;7.878;2022-08-02T02:05:53;20.90;65.00
68011;DHT22;54794;48.348;7.878;2022-08-02T02:08:35;20.90;65.20
68011;DHT22;54794;48.348;7.878;2022-08-02T02:11:05;20.90;65.30
68011;DHT22;54794;48.348;7.878;2022-08-02T02:13:55;20.90;65.10
68011;DHT22;54794;48.348;7.878;2022-08-02T02:16:24;20.90;64.90
68011;DHT22;54794;48.348;7.878;2022-08-02T02:18:54;20.90;65.00
68011;DHT22;54794;48.348;7.878;2022-08-02T02:21:21;20.80;65.10
68011;DHT22;54794;48.348;7.878;2022-08-02T02:23:48;20.80;65.10
68011;DHT22;54794;48.348;7.878;2022-08-02T02:26:16;20.80;65.10
68011;DHT22;54794;48.348;7.878;2022-08-02T02:29:00;20.80;65.20
68011;DHT22;54794;48.348;7.878;2022-08-02T02:31:33;20.80;65.10
68011;DHT22;54794;48.348;7.878;2022-08-02T02:34:04;20.80;65.50
68011;DHT22;54794;48.348;7.878;2022-08-02T02:36:38;20.70;65.10
68011;DHT22;54794;48.348;7.878;2022-08-02T02:39:08;20.70;65.30
68011;DHT22;54794;48.348;7.878;2022-08-02T02:41:40;20.70;65.40
68011;DHT22;54794;48.348;7.878;2022-08-02T02:44:12;20.70;65.40
68011;DHT22;54794;48.348;7.878;2022-08-02T02:46:43;20.70;65.50
68011;DHT22;54794;48.348;7.878;2022-08-02T02:49:10;20.60;65.50
68011;DHT22;54794;48.348;7.878;2022-08-02T02:51:41;20.60;65.50
68011;DHT22;54794;48.348;7.878;2022-08-02T02:54:11;20.60;65.70
68011;DHT22;54794;48.348;7.878;2022-08-02T02:56:59;20.60;65.70
68011;DHT22;54794;48.348;7.878;2022-08-02T02:59:28;20.60;65.70
68011;DHT22;54794;48.348;7.878;2022-08-02T03:01:56;20.60;65.80
68011;DHT22;54794;48.348;7.878;2022-08-02T03:04:27;20.60;65.80
68011;DHT22;54794;48.348;7.878;2022-08-02T03:07:15;20.50;66.10
68011;DHT22;54794;48.348;7.878;2022-08-02T03:09:42;20.50;65.90
68011;DHT22;54794;48.348;7.878;2022-08-02T03:12:11;20.50;65.70
68011;DHT22;54794;48.348;7.878;2022-08-02T03:14:40;20.50;66.00
68011;DHT22;54794;48.348;7.878;2022-08-02T03:17:08;20.60;66.10
68011;DHT22;54794;48.348;7.878;2022-08-02T03:19:35;20.50;65.60
68011;DHT22;54794;48.348;7.878;2022-08-02T03:22:03;20.50;65.70
68011;DHT22;54794;48.348;7.878;2022-08-02T03:24:30;20.50;65.90
68011;DHT22;54794;48.348;7.878;2022-08-02T03:26:57;20.50;66.00
68011;DHT22;54794;48.348;7.878;2022-08-02T03:29:24;20.50;66.10
68011;DHT22;54794;48.348;7.878;2022-08-02T03:31:51;20.40;66.10
68011;DHT22;54794;48.348;7.878;2022-08-02T03:34:18;20.40;66.10
68011;DHT22;54794;48.348;7.878;2022-08-02T03:36:50;20.50;66.30
68011;DHT22;54794;48.348;7.878;2022-08-02T03:39:20;20.40;65.90
68011;DHT22;54794;48.348;7.878;2022-08-02T03:41:48;20.40;66.00
68011;DHT22;54794;48.348;7.878;2022-08-02T03:44:16;20.40;66.10
68011;DHT22;54794;48.348;7.878;2022-08-02T03:46:44;20.30;66.30
68011;DHT22;54794;48.348;7.878;2022-08-02T03:49:11;20.30;66.30
68011;DHT22;54794;48.348;7.878;2022-08-02T03:51:43;20.30;66.40
68011;DHT22;54794;48.348;7.878;2022-08-02T03:54:11;20.30;66.10
68011;DHT22;54794;48.348;7.878;2022-08-02T03:56:38;20.30;66.30
68011;DHT22;54794;48.348;7.878;2022-08-02T03:59:11;20.20;66.40
68011;DHT22;54794;48.348;7.878;2022-08-02T04:01:39;20.20;66.60
68011;DHT22;54794;48.348;7.878;2022-08-02T04:04:07;20.20;66.70
68011;DHT22;54794;48.348;7.878;2022-08-02T04:06:34;20.30;66.80
68011;DHT22;54794;48.348;7.878;2022-08-02T04:09:05;20.20;66.90
68011;DHT22;54794;48.348;7.878;2022-08-02T04:11:32;20.20;66.80
68011;DHT22;54794;48.348;7.878;2022-08-02T04:14:01;20.20;66.90
68011;DHT22;54794;48.348;7.878;2022-08-02T04:19:25;20.20;67.60
68011;DHT22;54794;48.348;7.878;2022-08-02T04:21:59;20.20;67.60
68011;DHT22;54794;48.348;7.878;2022-08-02T04:24:37;20.20;67.30
68011;DHT22;54794;48.348;7.878;2022-08-02T04:27:09;20.20;67.40
68011;DHT22;54794;48.348;7.878;2022-08-02T04:29:56;20.20;67.20
68011;DHT22;54794;48.348;7.878;2022-08-02T04:32:26;20.20;67.20
68011;DHT22;54794;48.348;7.878;2022-08-02T04:34:54;20.20;67.20
68011;DHT22;54794;48.348;7.878;2022-08-02T04:37:41;20.20;67.30
68011;DHT22;54794;48.348;7.878;2022-08-02T04:40:29;20.20;67.40
68011;DHT22;54794;48.348;7.878;2022-08-02T04:42:56;20.20;67.40
68011;DHT22;54794;48.348;7.878;2022-08-02T04:45:24;20.20;67.40
68011;DHT22;54794;48.348;7.878;2022-08-02T04:47:52;20.20;67.60
68011;DHT22;54794;48.348;7.878;2022-08-02T04:50:29;20.20;67.60
68011;DHT22;54794;48.348;7.878;2022-08-02T04:52:56;20.20;67.50
68011;DHT22;54794;48.348;7.878;2022-08-02T04:55:24;20.20;67.70
68011;DHT22;54794;48.348;7.878;2022-08-02T04:57:55;20.20;67.80
68011;DHT22;54794;48.348;7.878;2022-08-02T05:00:25;20.30;68.00
68011;DHT22;54794;48.348;7.878;2022-08-02T05:02:55;20.30;68.10
68011;DHT22;54794;48.348;7.878;2022-08-02T05:05:23;20.30;68.30
68011;DHT22;54794;48.348;7.878;2022-08-02T05:07:51;20.40;68.50
68011;DHT22;54794;48.348;7.878;2022-08-02T05:10:18;20.40;68.40
68011;DHT22;54794;48.348;7.878;2022-08-02T05:12:46;20.40;68.50
68011;DHT22;54794;48.348;7.878;2022-08-02T05:15:14;20.50;68.50
68011;DHT22;54794;48.348;7.878;2022-08-02T05:17:45;20.50;68.70
68011;DHT22;54794;48.348;7.878;2022-08-02T05:20:17;20.50;68.60
68011;DHT22;54794;48.348;7.878;2022-08-02T05:22:45;20.60;68.80
68011;DHT22;54794;48.348;7.878;2022-08-02T05:25:12;20.60;68.40
68011;DHT22;54794;48.348;7.878;2022-08-02T05:27:40;20.70;68.50
68011;DHT22;54794;48.348;7.878;2022-08-02T05:30:09;20.70;68.00
68011;DHT22;54794;48.348;7.878;2022-08-02T05:32:48;20.80;68.20
68011;DHT22;54794;48.348;7.878;2022-08-02T05:35:20;20.80;68.60
68011;DHT22;54794;48.348;7.878;2022-08-02T05:37:50;20.80;68.30
68011;DHT22;54794;48.348;7.878;2022-08-02T05:40:19;20.90;68.40
68011;DHT22;54794;48.348;7.878;2022-08-02T05:42:52;20.90;68.20
68011;DHT22;54794;48.348;7.878;2022-08-02T05:45:20;20.90;68.10
68011;DHT22;54794;48.348;7.878;2022-08-02T05:47:49;21.00;68.10
68011;DHT22;54794;48.348;7.878;2022-08-02T05:50:18;21.00;68.20
68011;DHT22;54794;48.348;7.878;2022-08-02T05:52:50;21.00;68.20
68011;DHT22;54794;48.348;7.878;2022-08-02T05:55:32;21.10;68.60
68011;DHT22;54794;48.348;7.878;2022-08-02T06:01:15;21.20;69.40
68011;DHT22;54794;48.348;7.878;2022-08-02T06:03:56;21.20;68.70
68011;DHT22;54794;48.348;7.878;2022-08-02T06:06:28;21.30;68.80
68011;DHT22;54794;48.348;7.878;2022-08-02T06:09:00;21.40;68.60
68011;DHT22;54794;48.348;7.878;2022-08-02T06:11:46;21.40;68.60
68011;DHT22;54794;48.348;7.878;2022-08-02T06:14:37;21.50;69.10
68011;DHT22;54794;48.348;7.878;2022-08-02T06:17:07;21.60;68.50
68011;DHT22;54794;48.348;7.878;2022-08-02T06:19:40;21.60;68.40
68011;DHT22;54794;48.348;7.878;2022-08-02T06:22:18;21.70;68.60
68011;DHT22;54794;48.348;7.878;2022-08-02T06:25:02;21.80;68.40
68011;DHT22;54794;48.348;7.878;2022-08-02T06:27:32;21.80;68.50
68011;DHT22;54794;48.348;7.878;2022-08-02T06:30:01;21.90;68.60
68011;DHT22;54794;48.348;7.878;2022-08-02T06:32:32;21.90;68.70
68011;DHT22;54794;48.348;7.878;2022-08-02T06:35:03;22.00;68.70
68011;DHT22;54794;48.348;7.878;2022-08-02T06:45:39;22.30;69.10
68011;DHT22;54794;48.348;7.878;2022-08-02T06:48:07;22.40;68.60
68011;DHT22;54794;48.348;7.878;2022-08-02T06:50:35;22.50;68.60
68011;DHT22;54794;48.348;7.878;2022-08-02T06:53:05;22.60;68.20
68011;DHT22;54794;48.348;7.878;2022-08-02T06:55:33;22.60;68.60
68011;DHT22;54794;48.348;7.878;2022-08-02T06:58:10;22.80;68.70
68011;DHT22;54794;48.348;7.878;2022-08-02T07:00:39;22.90;68.80
68011;DHT22;54794;48.348;7.878;2022-08-02T07:03:08;23.00;68.60
68011;DHT22;54794;48.348;7.878;2022-08-02T07:05:36;23.10;68.60
68011;DHT22;54794;48.348;7.878;2022-08-02T07:08:03;23.20;68.80
68011;DHT22;54794;48.348;7.878;2022-08-02T07:10:30;23.30;68.60
68011;DHT22;54794;48.348;7.878;2022-08-02T07:12:58;23.40;68.20
68011;DHT22;54794;48.348;7.878;2022-08-02T07:15:27;23.50;68.10
68011;DHT22;54794;48.348;7.878;2022-08-02T07:17:55;23.60;68.30
68011;DHT22;54794;48.348;7.878;2022-08-02T07:20:22;23.70;67.60
68011;DHT22;54794;48.348;7.878;2022-08-02T07:22:50;23.80;67.30
68011;DHT22;54794;48.348;7.878;2022-08-02T07:25:17;23.90;67.70
68011;DHT22;54794;48.348;7.878;2022-08-02T07:27:46;24.00;67.70
68011;DHT22;54794;48.348;7.878;2022-08-02T07:30:14;24.10;67.70
68011;DHT22;54794;48.348;7.878;2022-08-02T07:32:42;24.30;67.20
68011;DHT22;54794;48.348;7.878;2022-08-02T07:35:10;24.40;66.50
68011;DHT22;54794;48.348;7.878;2022-08-02T07:37:44;24.40;66.70
68011;DHT22;54794;48.348;7.878;2022-08-02T07:40:24;24.50;66.00
68011;DHT22;54794;48.348;7.878;2022-08-02T07:42:53;24.60;65.60
68011;DHT22;54794;48.348;7.878;2022-08-02T07:45:30;24.70;65.50
68011;DHT22;54794;48.348;7.878;2022-08-02T07:48:01;24.80;65.30
68011;DHT22;54794;48.348;7.878;2022-08-02T07:50:30;24.80;65.70
68011;DHT22;54794;48.348;7.878;2022-08-02T07:52:58;24.90;65.90
68011;DHT22;54794;48.348;7.878;2022-08-02T07:55:26;24.90;65.40
68011;DHT22;54794;48.348;7.878;2022-08-02T07:58:09;25.10;65.40
68011;DHT22;54794;48.348;7.878;2022-08-02T08:00:42;25.10;65.00
68011;DHT22;54794;48.348;7.878;2022-08-02T08:03:11;25.20;65.00
68011;DHT22;54794;48.348;7.878;2022-08-02T08:05:39;25.40;65.10
68011;DHT22;54794;48.348;7.878;2022-08-02T08:08:07;25.50;65.00
68011;DHT22;54794;48.348;7.878;2022-08-02T08:10:42;25.60;65.10
68011;DHT22;54794;48.348;7.878;2022-08-02T08:13:11;25.70;64.60
68011;DHT22;54794;48.348;7.878;2022-08-02T08:15:39;25.90;64.10
68011;DHT22;54794;48.348;7.878;2022-08-02T08:18:17;26.00;64.60
68011;DHT22;54794;48.348;7.878;2022-08-02T08:20:45;26.10;64.70
68011;DHT22;54794;48.348;7.878;2022-08-02T08:23:13;26.20;64.00
68011;DHT22;54794;48.348;7.878;2022-08-02T08:25:41;26.30;63.40
68011;DHT22;54794;48.348;7.878;2022-08-02T08:28:11;26.30;62.90
68011;DHT22;54794;48.348;7.878;2022-08-02T08:30:39;26.40;63.40
68011;DHT22;54794;48.348;7.878;2022-08-02T08:33:08;26.50;63.00
68011;DHT22;54794;48.348;7.878;2022-08-02T08:35:36;26.60;62.60
68011;DHT22;54794;48.348;7.878;2022-08-02T08:38:05;26.70;62.60
68011;DHT22;54794;48.348;7.878;2022-08-02T08:40:34;26.80;62.70
68011;DHT22;54794;48.348;7.878;2022-08-02T08:43:03;26.90;62.70
68011;DHT22;54794;48.348;7.878;2022-08-02T08:45:32;27.00;62.90
68011;DHT22;54794;48.348;7.878;2022-08-02T08:48:05;27.10;62.90
68011;DHT22;54794;48.348;7.878;2022-08-02T08:50:59;27.30;63.00
68011;DHT22;54794;48.348;7.878;2022-08-02T08:53:38;27.40;61.70
68011;DHT22;54794;48.348;7.878;2022-08-02T08:56:10;27.60;61.20
68011;DHT22;54794;48.348;7.878;2022-08-02T08:58:43;27.80;61.30
68011;DHT22;54794;48.348;7.878;2022-08-02T09:01:14;27.90;61.30
68011;DHT22;54794;48.348;7.878;2022-08-02T09:03:44;28.00;61.10
68011;DHT22;54794;48.348;7.878;2022-08-02T09:06:11;28.20;60.50
68011;DHT22;54794;48.348;7.878;2022-08-02T09:08:38;28.20;60.50
68011;DHT22;54794;48.348;7.878;2022-08-02T09:11:13;28.40;60.10
68011;DHT22;54794;48.348;7.878;2022-08-02T09:14:08;28.60;59.30
68011;DHT22;54794;48.348;7.878;2022-08-02T09:16:40;28.70;59.60
68011;DHT22;54794;48.348;7.878;2022-08-02T09:19:21;28.80;58.80
68011;DHT22;54794;48.348;7.878;2022-08-02T09:22:10;28.90;57.40
68011;DHT22;54794;48.348;7.878;2022-08-02T09:24:41;29.00;57.80
68011;DHT22;54794;48.348;7.878;2022-08-02T09:27:18;29.10;57.60
68011;DHT22;54794;48.348;7.878;2022-08-02T09:29:49;29.20;56.20
68011;DHT22;54794;48.348;7.878;2022-08-02T09:32:46;29.30;57.50
68011;DHT22;54794;48.348;7.878;2022-08-02T09:35:30;29.40;56.60
68011;DHT22;54794;48.348;7.878;2022-08-02T09:38:18;29.50;56.40
68011;DHT22;54794;48.348;7.878;2022-08-02T09:40:45;29.50;57.10
68011;DHT22;54794;48.348;7.878;2022-08-02T09:43:12;29.60;56.30
68011;DHT22;54794;48.348;7.878;2022-08-02T09:45:39;29.70;56.40
68011;DHT22;54794;48.348;7.878;2022-08-02T09:48:06;29.80;55.80
68011;DHT22;54794;48.348;7.878;2022-08-02T09:50:39;29.80;55.40
68011;DHT22;54794;48.348;7.878;2022-08-02T09:53:11;29.80;54.60
68011;DHT22;54794;48.348;7.878;2022-08-02T09:55:40;29.90;54.10
68011;DHT22;54794;48.348;7.878;2022-08-02T09:58:26;29.90;54.70
68011;DHT22;54794;48.348;7.878;2022-08-02T10:00:54;30.00;54.70
68011;DHT22;54794;48.348;7.878;2022-08-02T10:03:24;30.00;55.20
68011;DHT22;54794;48.348;7.878;2022-08-02T10:06:01;30.10;54.60
68011;DHT22;54794;48.348;7.878;2022-08-02T10:08:30;30.10;54.10
68011;DHT22;54794;48.348;7.878;2022-08-02T10:11:00;30.20;54.10
68011;DHT22;54794;48.348;7.878;2022-08-02T10:13:32;30.30;54.00
68011;DHT22;54794;48.348;7.878;2022-08-02T10:16:01;30.40;53.40
68011;DHT22;54794;48.348;7.878;2022-08-02T10:18:29;30.50;53.60
68011;DHT22;54794;48.348;7.878;2022-08-02T10:21:15;30.60;53.50
68011;DHT22;54794;48.348;7.878;2022-08-02T10:23:48;30.60;52.00
68011;DHT22;54794;48.348;7.878;2022-08-02T10:26:18;30.80;52.70
68011;DHT22;54794;48.348;7.878;2022-08-02T10:28:47;30.80;52.50
68011;DHT22;54794;48.348;7.878;2022-08-02T10:31:21;30.80;51.50
68011;DHT22;54794;48.348;7.878;2022-08-02T10:33:53;30.90;50.80
68011;DHT22;54794;48.348;7.878;2022-08-02T10:36:23;30.90;51.30
68011;DHT22;54794;48.348;7.878;2022-08-02T10:38:54;30.90;51.20
68011;DHT22;54794;48.348;7.878;2022-08-02T10:44:29;31.10;51.10
68011;DHT22;54794;48.348;7.878;2022-08-02T10:52:30;31.40;50.30
68011;DHT22;54794;48.348;7.878;2022-08-02T10:55:08;31.50;51.30
68011;DHT22;54794;48.348;7.878;2022-08-02T10:57:40;31.60;50.00
68011;DHT22;54794;48.348;7.878;2022-08-02T11:02:50;31.80;49.30
68011;DHT22;54794;48.348;7.878;2022-08-02T11:05:32;31.90;50.10
68011;DHT22;54794;48.348;7.878;2022-08-02T11:08:21;32.00;49.10
68011;DHT22;54794;48.348;7.878;2022-08-02T11:10:48;32.00;47.90
68011;DHT22;54794;48.348;7.878;2022-08-02T11:13:16;32.10;49.50
68011;DHT22;54794;48.348;7.878;2022-08-02T11:21:24;32.40;48.10
68011;DHT22;54794;48.348;7.878;2022-08-02T11:23:55;32.50;47.40
68011;DHT22;54794;48.348;7.878;2022-08-02T11:29:03;32.70;47.80
68011;DHT22;54794;48.348;7.878;2022-08-02T11:31:41;32.70;46.40
68011;DHT22;54794;48.348;7.878;2022-08-02T11:34:10;32.70;45.90
68011;DHT22;54794;48.348;7.878;2022-08-02T11:36:58;32.80;47.00
68011;DHT22;54794;48.348;7.878;2022-08-02T11:39:25;32.80;47.20
68011;DHT22;54794;48.348;7.878;2022-08-02T11:41:53;32.90;46.60
68011;DHT22;54794;48.348;7.878;2022-08-02T11:44:25;33.00;48.30
68011;DHT22;54794;48.348;7.878;2022-08-02T11:47:01;33.10;47.40
68011;DHT22;54794;48.348;7.878;2022-08-02T11:49:29;33.20;46.70
68011;DHT22;54794;48.348;7.878;2022-08-02T11:52:01;33.30;46.70
68011;DHT22;54794;48.348;7.878;2022-08-02T11:54:36;33.30;45.90
68011;DHT22;54794;48.348;7.878;2022-08-02T11:57:18;33.50;45.80
68011;DHT22;54794;48.348;7.878;2022-08-02T11:59:49;33.60;45.40
68011;DHT22;54794;48.348;7.878;2022-08-02T12:02:19;33.70;45.40
68011;DHT22;54794;48.348;7.878;2022-08-02T12:05:00;33.80;44.80
68011;DHT22;54794;48.348;7.878;2022-08-02T12:07:35;33.90;44.10
68011;DHT22;54794;48.348;7.878;2022-08-02T12:10:15;34.00;44.40
68011;DHT22;54794;48.348;7.878;2022-08-02T12:15:30;34.20;44.20
68011;DHT22;54794;48.348;7.878;2022-08-02T12:18:08;34.30;43.30
68011;DHT22;54794;48.348;7.878;2022-08-02T12:21:03;34.40;43.40
68011;DHT22;54794;48.348;7.878;2022-08-02T12:23:45;34.50;43.30
68011;DHT22;54794;48.348;7.878;2022-08-02T12:26:27;34.60;42.90
68011;DHT22;54794;48.348;7.878;2022-08-02T12:28:57;34.70;42.50
68011;DHT22;54794;48.348;7.878;2022-08-02T12:31:41;34.70;43.10
68011;DHT22;54794;48.348;7.878;2022-08-02T12:34:25;34.80;42.00
68011;DHT22;54794;48.348;7.878;2022-08-02T12:37:02;34.90;43.00
68011;DHT22;54794;48.348;7.878;2022-08-02T12:39:42;35.00;42.20
68011;DHT22;54794;48.348;7.878;2022-08-02T12:42:13;35.10;41.20
68011;DHT22;54794;48.348;7.878;2022-08-02T12:44:55;35.20;41.80
68011;DHT22;54794;48.348;7.878;2022-08-02T12:47:24;35.20;40.80
68011;DHT22;54794;48.348;7.878;2022-08-02T12:50:17;35.30;41.20
68011;DHT22;54794;48.348;7.878;2022-08-02T12:52:50;35.30;40.60
68011;DHT22;54794;48.348;7.878;2022-08-02T12:55:30;35.40;41.30
68011;DHT22;54794;48.348;7.878;2022-08-02T12:58:17;35.50;41.30
68011;DHT22;54794;48.348;7.878;2022-08-02T13:00:52;35.50;40.80
68011;DHT22;54794;48.348;7.878;2022-08-02T13:03:21;35.60;38.90
68011;DHT22;54794;48.348;7.878;2022-08-02T13:06:09;35.70;40.20
68011;DHT22;54794;48.348;7.878;2022-08-02T13:08:56;35.70;40.00
68011;DHT22;54794;48.348;7.878;2022-08-02T13:11:27;35.80;40.40
68011;DHT22;54794;48.348;7.878;2022-08-02T13:13:54;35.80;40.10
68011;DHT22;54794;48.348;7.878;2022-08-02T13:16:23;35.80;39.40
68011;DHT22;54794;48.348;7.878;2022-08-02T13:18:57;35.90;39.20
68011;DHT22;54794;48.348;7.878;2022-08-02T13:21:24;35.90;38.60
68011;DHT22;54794;48.348;7.878;2022-08-02T13:24:11;35.90;38.70
68011;DHT22;54794;48.348;7.878;2022-08-02T13:27:01;35.90;38.30
68011;DHT22;54794;48.348;7.878;2022-08-02T13:29:33;35.90;38.70
68011;DHT22;54794;48.348;7.878;2022-08-02T13:32:00;35.90;39.00
68011;DHT22;54794;48.348;7.878;2022-08-02T13:34:27;35.90;38.30
68011;DHT22;54794;48.348;7.878;2022-08-02T13:36:54;36.00;39.70
68011;DHT22;54794;48.348;7.878;2022-08-02T13:39:21;36.00;38.50
68011;DHT22;54794;48.348;7.878;2022-08-02T13:41:47;36.10;39.60
68011;DHT22;54794;48.348;7.878;2022-08-02T13:44:15;36.10;38.30
68011;DHT22;54794;48.348;7.878;2022-08-02T13:46:42;36.10;38.40
68011;DHT22;54794;48.348;7.878;2022-08-02T13:49:12;36.20;37.90
68011;DHT22;54794;48.348;7.878;2022-08-02T13:51:46;36.20;37.40
68011;DHT22;54794;48.348;7.878;2022-08-02T13:54:16;36.20;37.30
68011;DHT22;54794;48.348;7.878;2022-08-02T13:56:44;36.30;37.00
68011;DHT22;54794;48.348;7.878;2022-08-02T13:59:10;36.30;36.40
68011;DHT22;54794;48.348;7.878;2022-08-02T14:01:58;36.40;36.30
68011;DHT22;54794;48.348;7.878;2022-08-02T14:04:25;36.40;36.20
68011;DHT22;54794;48.348;7.878;2022-08-02T14:06:53;36.50;35.60
68011;DHT22;54794;48.348;7.878;2022-08-02T14:09:25;36.50;36.60
68011;DHT22;54794;48.348;7.878;2022-08-02T14:11:52;36.60;36.30
68011;DHT22;54794;48.348;7.878;2022-08-02T14:14:19;36.60;35.90
68011;DHT22;54794;48.348;7.878;2022-08-02T14:16:46;36.70;35.80
68011;DHT22;54794;48.348;7.878;2022-08-02T14:19:13;36.70;35.00
68011;DHT22;54794;48.348;7.878;2022-08-02T14:21:43;36.70;34.90
68011;DHT22;54794;48.348;7.878;2022-08-02T14:24:13;36.70;34.60
68011;DHT22;54794;48.348;7.878;2022-08-02T14:26:44;36.70;34.70
68011;DHT22;54794;48.348;7.878;2022-08-02T14:29:13;36.70;34.50
68011;DHT22;54794;48.348;7.878;2022-08-02T14:31:41;36.70;34.00
68011;DHT22;54794;48.348;7.878;2022-08-02T14:34:11;36.80;34.40
68011;DHT22;54794;48.348;7.878;2022-08-02T14:36:39;36.80;34.50
68011;DHT22;54794;48.348;7.878;2022-08-02T14:39:06;36.90;33.70
68011;DHT22;54794;48.348;7.878;2022-08-02T14:41:33;37.00;33.80
68011;DHT22;54794;48.348;7.878;2022-08-02T14:44:22;37.00;33.80
68011;DHT22;54794;48.348;7.878;2022-08-02T14:46:49;37.10;33.30
68011;DHT22;54794;48.348;7.878;2022-08-02T14:49:18;37.20;32.90
68011;DHT22;54794;48.348;7.878;2022-08-02T14:51:52;37.30;33.40
68011;DHT22;54794;48.348;7.878;2022-08-02T14:54:21;37.40;33.40
68011;DHT22;54794;48.348;7.878;2022-08-02T14:56:59;37.40;33.40
68011;DHT22;54794;48.348;7.878;2022-08-02T14:59:29;37.50;33.60
68011;DHT22;54794;48.348;7.878;2022-08-02T15:01:57;37.50;33.50
68011;DHT22;54794;48.348;7.878;2022-08-02T15:04:25;37.50;33.20
68011;DHT22;54794;48.348;7.878;2022-08-02T15:06:53;37.60;32.80
68011;DHT22;54794;48.348;7.878;2022-08-02T15:09:20;37.60;32.40
68011;DHT22;54794;48.348;7.878;2022-08-02T15:11:47;37.60;32.10
68011;DHT22;54794;48.348;7.878;2022-08-02T15:14:19;37.60;31.90
68011;DHT22;54794;48.348;7.878;2022-08-02T15:16:52;37.70;31.10
68011;DHT22;54794;48.348;7.878;2022-08-02T15:19:23;37.70;31.80
68011;DHT22;54794;48.348;7.878;2022-08-02T15:22:11;37.70;31.80
68011;DHT22;54794;48.348;7.878;2022-08-02T15:24:43;37.80;32.00
68011;DHT22;54794;48.348;7.878;2022-08-02T15:27:10;37.80;32.10
68011;DHT22;54794;48.348;7.878;2022-08-02T15:29:40;37.80;31.30
68011;DHT22;54794;48.348;7.878;2022-08-02T15:32:09;37.80;30.70
68011;DHT22;54794;48.348;7.878;2022-08-02T15:34:38;37.80;30.70
68011;DHT22;54794;48.348;7.878;2022-08-02T15:37:05;37.80;30.90
68011;DHT22;54794;48.348;7.878;2022-08-02T15:39:32;37.80;31.00
68011;DHT22;54794;48.348;7.878;2022-08-02T15:41:59;37.80;30.80
68011;DHT22;54794;48.348;7.878;2022-08-02T15:44:26;37.80;30.90
68011;DHT22;54794;48.348;7.878;2022-08-02T15:46:53;37.80;31.30
68011;DHT22;54794;48.348;7.878;2022-08-02T15:49:20;37.80;31.10
68011;DHT22;54794;48.348;7.878;2022-08-02T15:51:51;37.80;31.10
68011;DHT22;54794;48.348;7.878;2022-08-02T15:54:19;37.80;30.30
68011;DHT22;54794;48.348;7.878;2022-08-02T15:56:46;37.80;30.90
68011;DHT22;54794;48.348;7.878;2022-08-02T15:59:14;37.70;30.80
68011;DHT22;54794;48.348;7.878;2022-08-02T16:01:41;37.70;30.30
68011;DHT22;54794;48.348;7.878;2022-08-02T16:04:14;37.70;30.20
68011;DHT22;54794;48.348;7.878;2022-08-02T16:06:42;37.70;30.00
68011;DHT22;54794;48.348;7.878;2022-08-02T16:09:09;37.70;29.90
68011;DHT22;54794;48.348;7.878;2022-08-02T16:11:37;37.60;29.80
68011;DHT22;54794;48.348;7.878;2022-08-02T16:14:04;37.60;29.80
68011;DHT22;54794;48.348;7.878;2022-08-02T16:16:33;37.50;30.00
68011;DHT22;54794;48.348;7.878;2022-08-02T16:19:03;37.50;29.90
68011;DHT22;54794;48.348;7.878;2022-08-02T16:21:51;37.40;29.80
68011;DHT22;54794;48.348;7.878;2022-08-02T16:24:19;37.40;29.60
68011;DHT22;54794;48.348;7.878;2022-08-02T16:26:47;37.30;29.90
68011;DHT22;54794;48.348;7.878;2022-08-02T16:29:14;37.20;29.90
68011;DHT22;54794;48.348;7.878;2022-08-02T16:31:48;37.20;29.60
68011;DHT22;54794;48.348;7.878;2022-08-02T16:34:15;37.10;29.50
68011;DHT22;54794;48.348;7.878;2022-08-02T16:36:43;37.10;29.60
68011;DHT22;54794;48.348;7.878;2022-08-02T16:39:11;37.00;29.70
68011;DHT22;54794;48.348;7.878;2022-08-02T16:41:38;37.00;29.70
68011;DHT22;54794;48.348;7.878;2022-08-02T16:44:18;37.00;29.60
68011;DHT22;54794;48.348;7.878;2022-08-02T16:46:56;37.00;29.70
68011;DHT22;54794;48.348;7.878;2022-08-02T16:49:27;36.80;29.50